sensor_id;sensor_type;location;lat;lon;timestamp;pressure;altitude;pressure_sealevel;temperature;humidity
49297;BME280;35163;48.878;18.040;2023-11-19T00:00:09;98900.72;;;6.29;58.43
49297;BME280;35163;48.878;18.040;2023-11-19T00:02:41;98907.56;;;6.30;58.17
49297;BME280;35163;48.878;18.040;2023-11-19T00:05:10;98907.56;;;6.30;58.62
49297;BME280;35163;48.878;18.040;2023-11-19T00:07:39;98892.16;;;6.29;58.86
49297;BME280;35163;48.878;18.040;2023-11-19T00:10:16;98889.63;;;6.27;58.84
49297;BME280;35163;48.878;18.040;2023-11-19T00:12:48;98880.19;;;6.28;59.20
49297;BME280;35163;48.878;18.040;2023-11-19T00:15:17;98875.94;;;6.28;58.85
49297;BME280;35163;48.878;18.040;2023-11-19T00:17:46;98875.06;;;6.26;59.39
49297;BME280;35163;48.878;18.040;2023-11-19T00:20:16;98877.59;;;6.32;58.59
49297;BME280;35163;48.878;18.040;2023-11-19T00:22:44;98875.03;;;6.32;58.63
49297;BME280;35163;48.878;18.040;2023-11-19T00:25:16;98877.59;;;6.34;59.10
49297;BME280;35163;48.878;18.040;2023-11-19T00:27:43;98876.72;;;6.34;59.14
49297;BME280;35163;48.878;18.040;2023-11-19T00:30:13;98883.59;;;6.31;59.04
49297;BME280;35163;48.878;18.040;2023-11-19T00:32:41;98887.03;;;6.30;59.44
49297;BME280;35163;48.878;18.040;2023-11-19T00:35:09;98881.06;;;6.30;59.30
49297;BME280;35163;48.878;18.040;2023-11-19T00:37:41;98871.59;;;6.34;59.40
49297;BME280;35163;48.878;18.040;2023-11-19T00:40:16;98874.16;;;6.32;59.18
49297;BME280;35163;48.878;18.040;2023-11-19T00:42:45;98887.84;;;6.36;59.44
49297;BME280;35163;48.878;18.040;2023-11-19T00:45:12;98880.13;;;6.36;58.98
49297;BME280;35163;48.878;18.040;2023-11-19T00:47:40;98879.31;;;6.32;58.82
49297;BME280;35163;48.878;18.040;2023-11-19T00:50:08;98885.31;;;6.32;58.55
49297;BME280;35163;48.878;18.040;2023-11-19T00:52:38;98884.41;;;6.34;58.68
49297;BME280;35163;48.878;18.040;2023-11-19T00:55:05;98879.31;;;6.30;58.77
49297;BME280;35163;48.878;18.040;2023-11-19T00:57:34;98868.19;;;6.31;59.13
49297;BME280;35163;48.878;18.040;2023-11-19T01:00:02;98867.34;;;6.29;59.29
49297;BME280;35163;48.878;18.040;2023-11-19T01:02:35;98864.75;;;6.32;59.18
49297;BME280;35163;48.878;18.040;2023-11-19T01:05:02;98857.94;;;6.31;58.77
49297;BME280;35163;48.878;18.040;2023-11-19T01:07:29;98840.78;;;6.30;58.54
49297;BME280;35163;48.878;18.040;2023-11-19T01:09:56;98845.06;;;6.31;58.73
49297;BME280;35163;48.878;18.040;2023-11-19T01:12:23;98842.53;;;6.30;59.13
49297;BME280;35163;48.878;18.040;2023-11-19T01:14:50;98845.94;;;6.30;58.71
49297;BME280;35163;48.878;18.040;2023-11-19T01:17:16;98844.19;;;6.36;58.22
49297;BME280;35163;48.878;18.040;2023-11-19T01:19:43;98837.34;;;6.35;58.44
49297;BME280;35163;48.878;18.040;2023-11-19T01:22:10;98840.78;;;6.35;58.27
49297;BME280;35163;48.878;18.040;2023-11-19T01:24:36;98835.63;;;6.32;58.14
49297;BME280;35163;48.878;18.040;2023-11-19T01:27:03;98835.63;;;6.32;58.22
49297;BME280;35163;48.878;18.040;2023-11-19T01:29:30;98822.81;;;6.30;58.17
49297;BME280;35163;48.878;18.040;2023-11-19T01:31:57;98800.59;;;6.28;57.85
49297;BME280;35163;48.878;18.040;2023-11-19T01:34:24;98782.66;;;6.23;58.34
49297;BME280;35163;48.878;18.040;2023-11-19T01:36:51;98793.72;;;6.27;58.36
49297;BME280;35163;48.878;18.040;2023-11-19T01:39:18;98798.06;;;6.23;58.46
49297;BME280;35163;48.878;18.040;2023-11-19T01:41:46;98805.72;;;6.26;58.27
49297;BME280;35163;48.878;18.040;2023-11-19T01:44:13;98820.28;;;6.26;58.18
49297;BME280;35163;48.878;18.040;2023-11-19T01:46:45;98819.44;;;6.28;58.40
49297;BME280;35163;48.878;18.040;2023-11-19T01:49:15;98806.56;;;6.27;58.22
49297;BME280;35163;48.878;18.040;2023-11-19T01:51:42;98777.50;;;6.23;59.04
49297;BME280;35163;48.878;18.040;2023-11-19T01:54:10;98768.06;;;6.25;59.19
49297;BME280;35163;48.878;18.040;2023-11-19T01:56:38;98778.34;;;6.25;59.34
49297;BME280;35163;48.878;18.040;2023-11-19T01:59:09;98773.19;;;6.27;59.23
49297;BME280;35163;48.878;18.040;2023-11-19T02:01:38;98769.75;;;6.28;59.31
49297;BME280;35163;48.878;18.040;2023-11-19T02:04:08;98759.50;;;6.28;59.28
49297;BME280;35163;48.878;18.040;2023-11-19T02:06:38;98754.38;;;6.26;59.23
49297;BME280;35163;48.878;18.040;2023-11-19T02:09:08;98745.78;;;6.27;59.16
49297;BME280;35163;48.878;18.040;2023-11-19T02:11:35;98742.38;;;6.25;59.21
49297;BME280;35163;48.878;18.040;2023-11-19T02:14:02;98726.13;;;6.26;59.47
49297;BME280;35163;48.878;18.040;2023-11-19T02:16:32;98714.13;;;6.28;58.76
49297;BME280;35163;48.878;18.040;2023-11-19T02:18:58;98720.09;;;6.27;58.61
49297;BME280;35163;48.878;18.040;2023-11-19T02:21:26;98726.97;;;6.25;59.02
49297;BME280;35163;48.878;18.040;2023-11-19T02:23:53;98707.31;;;6.24;58.80
49297;BME280;35163;48.878;18.040;2023-11-19T02:26:30;98699.59;;;6.24;59.13
49297;BME280;35163;48.878;18.040;2023-11-19T02:29:00;98695.34;;;6.23;59.13
49297;BME280;35163;48.878;18.040;2023-11-19T02:31:27;98691.94;;;6.21;59.51
49297;BME280;35163;48.878;18.040;2023-11-19T02:33:54;98697.91;;;6.23;59.01
49297;BME280;35163;48.878;18.040;2023-11-19T02:36:21;98691.03;;;6.24;58.85
49297;BME280;35163;48.878;18.040;2023-11-19T02:38:48;98684.22;;;6.23;58.37
49297;BME280;35163;48.878;18.040;2023-11-19T02:41:15;98680.75;;;6.25;58.88
49297;BME280;35163;48.878;18.040;2023-11-19T02:43:42;98675.63;;;6.22;59.45
49297;BME280;35163;48.878;18.040;2023-11-19T02:46:09;98662.75;;;6.25;59.10
49297;BME280;35163;48.878;18.040;2023-11-19T02:48:39;98653.38;;;6.23;59.44
49297;BME280;35163;48.878;18.040;2023-11-19T02:51:06;98675.63;;;6.24;59.03
49297;BME280;35163;48.878;18.040;2023-11-19T02:53:37;98675.63;;;6.22;59.12
49297;BME280;35163;48.878;18.040;2023-11-19T02:56:04;98668.75;;;6.26;59.25
49297;BME280;35163;48.878;18.040;2023-11-19T02:58:52;98656.81;;;6.23;59.53
49297;BME280;35163;48.878;18.040;2023-11-19T03:01:24;98657.63;;;6.25;59.16
49297;BME280;35163;48.878;18.040;2023-11-19T03:03:58;98646.53;;;6.23;58.78
49297;BME280;35163;48.878;18.040;2023-11-19T03:06:26;98640.56;;;6.21;59.26
49297;BME280;35163;48.878;18.040;2023-11-19T03:08:54;98632.84;;;6.23;59.52
49297;BME280;35163;48.878;18.040;2023-11-19T03:11:21;98625.13;;;6.24;59.20
49297;BME280;35163;48.878;18.040;2023-11-19T03:13:48;98628.53;;;6.26;59.15
49297;BME280;35163;48.878;18.040;2023-11-19T03:16:14;98621.66;;;6.27;59.25
49297;BME280;35163;48.878;18.040;2023-11-19T03:18:41;98621.66;;;6.27;59.29
49297;BME280;35163;48.878;18.040;2023-11-19T03:21:08;98623.38;;;6.28;59.05
49297;BME280;35163;48.878;18.040;2023-11-19T03:23:36;98613.97;;;6.28;58.65
49297;BME280;35163;48.878;18.040;2023-11-19T03:26:03;98613.94;;;6.31;58.58
49297;BME280;35163;48.878;18.040;2023-11-19T03:28:32;98610.47;;;6.32;58.77
49297;BME280;35163;48.878;18.040;2023-11-19T03:30:58;98608.78;;;6.31;59.34
49297;BME280;35163;48.878;18.040;2023-11-19T03:33:25;98610.50;;;6.29;58.97
49297;BME280;35163;48.878;18.040;2023-11-19T03:35:56;98599.38;;;6.29;58.90
49297;BME280;35163;48.878;18.040;2023-11-19T03:38:23;98595.13;;;6.28;58.56
49297;BME280;35163;48.878;18.040;2023-11-19T03:40:51;98584.00;;;6.27;58.48
49297;BME280;35163;48.878;18.040;2023-11-19T03:43:18;98582.31;;;6.26;58.70
49297;BME280;35163;48.878;18.040;2023-11-19T03:45:48;98584.91;;;6.25;59.10
49297;BME280;35163;48.878;18.040;2023-11-19T03:48:15;98580.63;;;6.22;59.75
49297;BME280;35163;48.878;18.040;2023-11-19T03:50:43;98583.13;;;6.27;59.73
49297;BME280;35163;48.878;18.040;2023-11-19T03:53:11;98584.84;;;6.28;59.38
49297;BME280;35163;48.878;18.040;2023-11-19T03:55:38;98590.00;;;6.28;58.97
49297;BME280;35163;48.878;18.040;2023-11-19T03:58:05;98596.84;;;6.27;58.72
49297;BME280;35163;48.878;18.040;2023-11-19T04:00:32;98597.75;;;6.23;58.10
49297;BME280;35163;48.878;18.040;2023-11-19T04:02:59;98595.19;;;6.23;58.18
49297;BME280;35163;48.878;18.040;2023-11-19T04:05:27;98590.94;;;6.19;58.29
49297;BME280;35163;48.878;18.040;2023-11-19T04:07:54;98585.84;;;6.16;58.54
49297;BME280;35163;48.878;18.040;2023-11-19T04:10:20;98594.38;;;6.18;58.91
49297;BME280;35163;48.878;18.040;2023-11-19T04:12:49;98586.72;;;6.13;58.90
49297;BME280;35163;48.878;18.040;2023-11-19T04:15:16;98591.00;;;6.13;58.90
49297;BME280;35163;48.878;18.040;2023-11-19T04:17:43;98604.69;;;6.16;58.99
49297;BME280;35163;48.878;18.040;2023-11-19T04:20:10;98611.50;;;6.16;59.07
49297;BME280;35163;48.878;18.040;2023-11-19T04:22:43;98620.09;;;6.13;59.28
49297;BME280;35163;48.878;18.040;2023-11-19T04:25:09;98618.38;;;6.14;58.87
49297;BME280;35163;48.878;18.040;2023-11-19T04:27:37;98611.56;;;6.13;59.05
49297;BME280;35163;48.878;18.040;2023-11-19T04:30:05;98600.47;;;6.09;59.42
49297;BME280;35163;48.878;18.040;2023-11-19T04:32:32;98609.00;;;6.13;59.29
49297;BME280;35163;48.878;18.040;2023-11-19T04:34:59;98618.38;;;6.14;58.95
49297;BME280;35163;48.878;18.040;2023-11-19T04:37:25;98614.13;;;6.13;58.55
49297;BME280;35163;48.878;18.040;2023-11-19T04:39:52;98619.25;;;6.10;58.93
49297;BME280;35163;48.878;18.040;2023-11-19T04:42:19;98616.75;;;6.05;58.58
49297;BME280;35163;48.878;18.040;2023-11-19T04:44:46;98610.75;;;6.07;58.78
49297;BME280;35163;48.878;18.040;2023-11-19T04:47:13;98606.47;;;6.06;58.81
49297;BME280;35163;48.878;18.040;2023-11-19T04:49:41;98606.47;;;6.05;59.17
49297;BME280;35163;48.878;18.040;2023-11-19T04:52:10;98603.03;;;6.04;58.90
49297;BME280;35163;48.878;18.040;2023-11-19T04:54:42;98603.03;;;6.04;58.98
49297;BME280;35163;48.878;18.040;2023-11-19T04:57:10;98602.19;;;6.04;59.04
49297;BME280;35163;48.878;18.040;2023-11-19T04:59:42;98603.03;;;6.04;58.83
49297;BME280;35163;48.878;18.040;2023-11-19T05:02:09;98597.06;;;6.07;58.95
49297;BME280;35163;48.878;18.040;2023-11-19T05:04:36;98601.31;;;6.06;59.13
49297;BME280;35163;48.878;18.040;2023-11-19T05:07:04;98598.75;;;6.08;58.78
49297;BME280;35163;48.878;18.040;2023-11-19T05:09:31;98590.22;;;6.07;58.83
49297;BME280;35163;48.878;18.040;2023-11-19T05:11:58;98596.16;;;6.08;58.88
49297;BME280;35163;48.878;18.040;2023-11-19T05:14:25;98595.34;;;6.07;59.36
49297;BME280;35163;48.878;18.040;2023-11-19T05:16:53;98595.31;;;6.11;59.32
49297;BME280;35163;48.878;18.040;2023-11-19T05:19:20;98591.00;;;6.13;59.08
49297;BME280;35163;48.878;18.040;2023-11-19T05:21:47;98587.59;;;6.11;58.89
49297;BME280;35163;48.878;18.040;2023-11-19T05:24:13;98594.44;;;6.12;58.58
49297;BME280;35163;48.878;18.040;2023-11-19T05:26:40;98571.31;;;6.13;58.74
49297;BME280;35163;48.878;18.040;2023-11-19T05:29:07;98566.13;;;6.18;58.49
49297;BME280;35163;48.878;18.040;2023-11-19T05:31:34;98556.69;;;6.20;58.68
49297;BME280;35163;48.878;18.040;2023-11-19T05:34:03;98554.09;;;6.20;58.68
49297;BME280;35163;48.878;18.040;2023-11-19T05:36:30;98551.53;;;6.23;58.73
49297;BME280;35163;48.878;18.040;2023-11-19T05:38:57;98538.69;;;6.23;58.72
49297;BME280;35163;48.878;18.040;2023-11-19T05:41:24;98531.88;;;6.19;58.72
49297;BME280;35163;48.878;18.040;2023-11-19T05:43:51;98532.75;;;6.18;59.09
49297;BME280;35163;48.878;18.040;2023-11-19T05:46:18;98527.63;;;6.18;58.52
49297;BME280;35163;48.878;18.040;2023-11-19T05:48:46;98531.00;;;6.20;58.43
49297;BME280;35163;48.878;18.040;2023-11-19T05:51:14;98535.28;;;6.21;58.56
49297;BME280;35163;48.878;18.040;2023-11-19T05:53:44;98545.56;;;6.21;58.71
49297;BME280;35163;48.878;18.040;2023-11-19T05:56:14;98541.25;;;6.23;58.42
49297;BME280;35163;48.878;18.040;2023-11-19T05:58:42;98533.53;;;6.22;58.66
49297;BME280;35163;48.878;18.040;2023-11-19T06:01:17;98525.00;;;6.21;58.90
49297;BME280;35163;48.878;18.040;2023-11-19T06:03:44;98530.16;;;6.21;59.10
49297;BME280;35163;48.878;18.040;2023-11-19T06:06:14;98530.97;;;6.22;59.13
49297;BME280;35163;48.878;18.040;2023-11-19T06:08:41;98537.81;;;6.24;58.83
49297;BME280;35163;48.878;18.040;2023-11-19T06:11:09;98542.94;;;6.24;58.95
49297;BME280;35163;48.878;18.040;2023-11-19T06:13:41;98542.09;;;6.24;58.86
49297;BME280;35163;48.878;18.040;2023-11-19T06:16:09;98535.25;;;6.23;59.06
49297;BME280;35163;48.878;18.040;2023-11-19T06:18:37;98531.78;;;6.27;59.06
49297;BME280;35163;48.878;18.040;2023-11-19T06:21:03;98529.22;;;6.25;59.07
49297;BME280;35163;48.878;18.040;2023-11-19T06:23:30;98537.81;;;6.24;59.01
49297;BME280;35163;48.878;18.040;2023-11-19T06:25:58;98540.38;;;6.24;59.07
49297;BME280;35163;48.878;18.040;2023-11-19T06:28:25;98540.38;;;6.24;59.19
49297;BME280;35163;48.878;18.040;2023-11-19T06:30:52;98531.00;;;6.23;59.37
49297;BME280;35163;48.878;18.040;2023-11-19T06:33:18;98526.69;;;6.24;59.12
49297;BME280;35163;48.878;18.040;2023-11-19T06:35:45;98518.16;;;6.23;59.06
49297;BME280;35163;48.878;18.040;2023-11-19T06:38:12;98506.09;;;6.27;59.02
49297;BME280;35163;48.878;18.040;2023-11-19T06:40:39;98476.13;;;6.27;59.20
49297;BME280;35163;48.878;18.040;2023-11-19T06:43:07;98477.84;;;6.28;58.97
49297;BME280;35163;48.878;18.040;2023-11-19T06:45:37;98477.06;;;6.23;58.74
49297;BME280;35163;48.878;18.040;2023-11-19T06:48:04;98504.44;;;6.24;59.34
49297;BME280;35163;48.878;18.040;2023-11-19T06:50:34;98504.38;;;6.27;59.50
49297;BME280;35163;48.878;18.040;2023-11-19T06:53:03;98515.53;;;6.26;59.47
49297;BME280;35163;48.878;18.040;2023-11-19T06:55:32;98524.06;;;6.28;59.60
49297;BME280;35163;48.878;18.040;2023-11-19T06:58:01;98501.78;;;6.29;59.20
49297;BME280;35163;48.878;18.040;2023-11-19T07:00:29;98506.91;;;6.30;59.55
49297;BME280;35163;48.878;18.040;2023-11-19T07:02:59;98515.50;;;6.29;59.70
49297;BME280;35163;48.878;18.040;2023-11-19T07:05:26;98516.31;;;6.33;59.39
49297;BME280;35163;48.878;18.040;2023-11-19T07:07:54;98523.13;;;6.34;59.81
49297;BME280;35163;48.878;18.040;2023-11-19T07:10:22;98532.53;;;6.37;59.53
49297;BME280;35163;48.878;18.040;2023-11-19T07:12:49;98534.19;;;6.39;59.77
49297;BME280;35163;48.878;18.040;2023-11-19T07:15:17;98527.38;;;6.38;59.97
49297;BME280;35163;48.878;18.040;2023-11-19T07:17:46;98522.25;;;6.37;59.42
49297;BME280;35163;48.878;18.040;2023-11-19T07:20:26;98499.13;;;6.38;59.88
49297;BME280;35163;48.878;18.040;2023-11-19T07:22:57;98482.84;;;6.38;59.66
49297;BME280;35163;48.878;18.040;2023-11-19T07:25:24;98481.19;;;6.34;59.12
49297;BME280;35163;48.878;18.040;2023-11-19T07:27:53;98487.16;;;6.36;59.41
49297;BME280;35163;48.878;18.040;2023-11-19T07:30:22;98487.13;;;6.37;59.42
49297;BME280;35163;48.878;18.040;2023-11-19T07:32:49;98474.28;;;6.40;59.58
49297;BME280;35163;48.878;18.040;2023-11-19T07:35:16;98466.56;;;6.39;59.82
49297;BME280;35163;48.878;18.040;2023-11-19T07:37:43;98463.13;;;6.41;59.89
49297;BME280;35163;48.878;18.040;2023-11-19T07:40:10;98460.47;;;6.46;59.83
49297;BME280;35163;48.878;18.040;2023-11-19T07:42:37;98444.22;;;6.46;59.64
49297;BME280;35163;48.878;18.040;2023-11-19T07:45:05;98439.09;;;6.46;59.93
49297;BME280;35163;48.878;18.040;2023-11-19T07:47:32;98461.28;;;6.50;60.22
49297;BME280;35163;48.878;18.040;2023-11-19T07:49:59;98460.41;;;6.51;59.89
49297;BME280;35163;48.878;18.040;2023-11-19T07:52:25;98449.28;;;6.52;59.74
49297;BME280;35163;48.878;18.040;2023-11-19T07:54:52;98442.41;;;6.54;59.36
49297;BME280;35163;48.878;18.040;2023-11-19T07:57:20;98431.25;;;6.53;59.84
49297;BME280;35163;48.878;18.040;2023-11-19T07:59:46;98420.94;;;6.56;59.85
49297;BME280;35163;48.878;18.040;2023-11-19T08:02:13;98431.19;;;6.58;59.11
49297;BME280;35163;48.878;18.040;2023-11-19T08:04:41;98442.31;;;6.59;59.73
49297;BME280;35163;48.878;18.040;2023-11-19T08:07:11;98444.88;;;6.59;60.15
49297;BME280;35163;48.878;18.040;2023-11-19T08:09:38;98452.53;;;6.63;60.09
49297;BME280;35163;48.878;18.040;2023-11-19T08:12:05;98459.31;;;6.67;59.70
49297;BME280;35163;48.878;18.040;2023-11-19T08:14:33;98467.00;;;6.71;59.38
49297;BME280;35163;48.878;18.040;2023-11-19T08:17:00;98462.75;;;6.66;59.26
49297;BME280;35163;48.878;18.040;2023-11-19T08:19:27;98455.91;;;6.67;59.07
49297;BME280;35163;48.878;18.040;2023-11-19T08:21:57;98448.97;;;6.72;59.20
49297;BME280;35163;48.878;18.040;2023-11-19T08:24:24;98443.84;;;6.72;59.68
49297;BME280;35163;48.878;18.040;2023-11-19T08:26:50;98435.22;;;6.75;59.74
49297;BME280;35163;48.878;18.040;2023-11-19T08:29:28;98417.22;;;6.76;59.37
49297;BME280;35163;48.878;18.040;2023-11-19T08:31:55;98409.50;;;6.76;59.35
49297;BME280;35163;48.878;18.040;2023-11-19T08:34:22;98419.78;;;6.78;59.22
49297;BME280;35163;48.878;18.040;2023-11-19T08:36:52;98422.38;;;6.76;58.81
49297;BME280;35163;48.878;18.040;2023-11-19T08:39:20;98425.75;;;6.77;58.78
49297;BME280;35163;48.878;18.040;2023-11-19T08:41:47;98429.16;;;6.79;59.08
49297;BME280;35163;48.878;18.040;2023-11-19T08:44:14;98424.06;;;6.77;59.07
49297;BME280;35163;48.878;18.040;2023-11-19T08:46:51;98430.03;;;6.79;59.44
49297;BME280;35163;48.878;18.040;2023-11-19T08:49:17;98435.09;;;6.83;59.63
49297;BME280;35163;48.878;18.040;2023-11-19T08:51:44;98428.22;;;6.85;59.78
49297;BME280;35163;48.878;18.040;2023-11-19T08:54:11;98435.06;;;6.86;59.59
49297;BME280;35163;48.878;18.040;2023-11-19T08:56:39;98433.41;;;6.83;60.28
49297;BME280;35163;48.878;18.040;2023-11-19T08:59:06;98437.63;;;6.86;59.83
49297;BME280;35163;48.878;18.040;2023-11-19T09:01:33;98446.16;;;6.88;59.83
49297;BME280;35163;48.878;18.040;2023-11-19T09:04:00;98454.75;;;6.87;59.77
49297;BME280;35163;48.878;18.040;2023-11-19T09:06:27;98444.44;;;6.90;59.52
49297;BME280;35163;48.878;18.040;2023-11-19T09:08:54;98448.75;;;6.88;59.42
49297;BME280;35163;48.878;18.040;2023-11-19T09:11:24;98442.75;;;6.86;59.73
49297;BME280;35163;48.878;18.040;2023-11-19T09:13:51;98433.34;;;6.86;59.94
49297;BME280;35163;48.878;18.040;2023-11-19T09:16:18;98435.94;;;6.85;59.38
49297;BME280;35163;48.878;18.040;2023-11-19T09:18:45;98423.91;;;6.85;59.77
49297;BME280;35163;48.878;18.040;2023-11-19T09:21:12;98417.94;;;6.85;58.98
49297;BME280;35163;48.878;18.040;2023-11-19T09:23:39;98416.25;;;6.82;58.83
49297;BME280;35163;48.878;18.040;2023-11-19T09:26:08;98407.72;;;6.80;59.42
49297;BME280;35163;48.878;18.040;2023-11-19T09:28:35;98411.16;;;6.80;59.59
49297;BME280;35163;48.878;18.040;2023-11-19T09:31:02;98412.84;;;6.83;59.44
49297;BME280;35163;48.878;18.040;2023-11-19T09:33:32;98388.84;;;6.83;59.40
49297;BME280;35163;48.878;18.040;2023-11-19T09:36:01;98378.56;;;6.83;59.36
49297;BME280;35163;48.878;18.040;2023-11-19T09:38:28;98375.97;;;6.84;59.15
49297;BME280;35163;48.878;18.040;2023-11-19T09:40:55;98391.41;;;6.83;59.52
49297;BME280;35163;48.878;18.040;2023-11-19T09:43:21;98389.72;;;6.82;59.01
49297;BME280;35163;48.878;18.040;2023-11-19T09:45:50;98381.25;;;6.76;59.45
49297;BME280;35163;48.878;18.040;2023-11-19T09:48:18;98383.81;;;6.76;59.58
49297;BME280;35163;48.878;18.040;2023-11-19T09:50:47;98379.59;;;6.72;59.83
49297;BME280;35163;48.878;18.040;2023-11-19T09:53:14;98379.50;;;6.77;59.55
49297;BME280;35163;48.878;18.040;2023-11-19T09:55:42;98376.13;;;6.73;59.71
49297;BME280;35163;48.878;18.040;2023-11-19T09:58:12;98380.41;;;6.74;59.82
49297;BME280;35163;48.878;18.040;2023-11-19T10:00:41;98378.69;;;6.73;59.92
49297;BME280;35163;48.878;18.040;2023-11-19T10:03:11;98371.91;;;6.71;59.50
49297;BME280;35163;48.878;18.040;2023-11-19T10:05:39;98364.22;;;6.69;59.71
49297;BME280;35163;48.878;18.040;2023-11-19T10:08:06;98359.97;;;6.66;59.82
49297;BME280;35163;48.878;18.040;2023-11-19T10:10:34;98351.44;;;6.66;59.49
49297;BME280;35163;48.878;18.040;2023-11-19T10:13:01;98338.59;;;6.66;59.40
49297;BME280;35163;48.878;18.040;2023-11-19T10:15:36;98333.44;;;6.66;59.38
49297;BME280;35163;48.878;18.040;2023-11-19T10:18:03;98328.34;;;6.63;59.57
49297;BME280;35163;48.878;18.040;2023-11-19T10:20:36;98324.22;;;6.54;59.53
49297;BME280;35163;48.878;18.040;2023-11-19T10:23:03;98316.69;;;6.43;59.80
49297;BME280;35163;48.878;18.040;2023-11-19T10:25:32;98303.88;;;6.40;60.21
49297;BME280;35163;48.878;18.040;2023-11-19T10:27:59;98308.09;;;6.44;60.44
49297;BME280;35163;48.878;18.040;2023-11-19T10:30:28;98315.78;;;6.44;60.43
49297;BME280;35163;48.878;18.040;2023-11-19T10:33:10;98307.22;;;6.47;60.79
49297;BME280;35163;48.878;18.040;2023-11-19T10:35:54;98301.16;;;6.49;60.38
49297;BME280;35163;48.878;18.040;2023-11-19T10:38:26;98296.09;;;6.44;60.57
49297;BME280;35163;48.878;18.040;2023-11-19T10:40:53;98294.41;;;6.43;60.29
49297;BME280;35163;48.878;18.040;2023-11-19T10:43:21;98297.81;;;6.46;60.71
49297;BME280;35163;48.878;18.040;2023-11-19T10:45:52;98299.44;;;6.50;60.89
49297;BME280;35163;48.878;18.040;2023-11-19T10:48:19;98294.44;;;6.42;60.75
49297;BME280;35163;48.878;18.040;2023-11-19T10:50:53;98297.94;;;6.38;60.87
49297;BME280;35163;48.878;18.040;2023-11-19T10:53:23;98292.72;;;6.41;60.83
49297;BME280;35163;48.878;18.040;2023-11-19T10:55:57;98269.66;;;6.39;60.86
49297;BME280;35163;48.878;18.040;2023-11-19T10:58:27;98283.28;;;6.43;61.34
49297;BME280;35163;48.878;18.040;2023-11-19T11:00:57;98286.66;;;6.47;60.92
49297;BME280;35163;48.878;18.040;2023-11-19T11:03:25;98274.63;;;6.49;60.56
49297;BME280;35163;48.878;18.040;2023-11-19T11:05:56;98279.69;;;6.53;61.02
49297;BME280;35163;48.878;18.040;2023-11-19T11:08:24;98283.94;;;6.54;60.65
49297;BME280;35163;48.878;18.040;2023-11-19T11:10:55;98263.44;;;6.51;61.30
49297;BME280;35163;48.878;18.040;2023-11-19T11:13:25;98254.78;;;6.59;61.18
49297;BME280;35163;48.878;18.040;2023-11-19T11:15:53;98247.91;;;6.59;61.42
49297;BME280;35163;48.878;18.040;2023-11-19T11:18:23;98252.19;;;6.59;61.05
49297;BME280;35163;48.878;18.040;2023-11-19T11:21:14;98246.19;;;6.58;61.03
49297;BME280;35163;48.878;18.040;2023-11-19T11:26:50;98245.28;;;6.62;61.17
49297;BME280;35163;48.878;18.040;2023-11-19T11:32:08;98252.03;;;6.66;61.93
49297;BME280;35163;48.878;18.040;2023-11-19T11:37:36;98246.88;;;6.68;62.25
49297;BME280;35163;48.878;18.040;2023-11-19T11:40:04;98250.28;;;6.70;62.39
49297;BME280;35163;48.878;18.040;2023-11-19T11:42:37;98247.69;;;6.70;62.69
49297;BME280;35163;48.878;18.040;2023-11-19T11:45:06;98239.94;;;6.73;62.63
49297;BME280;35163;48.878;18.040;2023-11-19T11:50:15;98218.50;;;6.74;62.45
49297;BME280;35163;48.878;18.040;2023-11-19T11:58:03;98214.13;;;6.79;63.24
49297;BME280;35163;48.878;18.040;2023-11-19T12:00:32;98204.66;;;6.83;62.97
49297;BME280;35163;48.878;18.040;2023-11-19T12:03:05;98202.91;;;6.84;63.25
49297;BME280;35163;48.878;18.040;2023-11-19T12:05:38;98191.78;;;6.83;63.08
49297;BME280;35163;48.878;18.040;2023-11-19T12:08:07;98192.69;;;6.80;63.26
49297;BME280;35163;48.878;18.040;2023-11-19T12:13:12;98194.38;;;6.83;63.61
49297;BME280;35163;48.878;18.040;2023-11-19T12:18:26;98185.88;;;6.79;63.27
49297;BME280;35163;48.878;18.040;2023-11-19T12:20:57;98184.13;;;6.82;63.56
49297;BME280;35163;48.878;18.040;2023-11-19T12:23:28;98191.81;;;6.82;63.86
49297;BME280;35163;48.878;18.040;2023-11-19T12:25:56;98177.31;;;6.79;63.87
49297;BME280;35163;48.878;18.040;2023-11-19T12:28:24;98175.59;;;6.79;64.03
49297;BME280;35163;48.878;18.040;2023-11-19T12:30:53;98167.09;;;6.76;63.82
49297;BME280;35163;48.878;18.040;2023-11-19T12:33:23;98184.28;;;6.72;63.82
49297;BME280;35163;48.878;18.040;2023-11-19T12:35:49;98192.00;;;6.72;63.96
49297;BME280;35163;48.878;18.040;2023-11-19T12:38:24;98198.00;;;6.73;64.21
49297;BME280;35163;48.878;18.040;2023-11-19T12:43:30;98210.78;;;6.76;64.39
49297;BME280;35163;48.878;18.040;2023-11-19T12:46:21;98197.91;;;6.76;64.17
49297;BME280;35163;48.878;18.040;2023-11-19T12:48:49;98193.63;;;6.76;64.50
49297;BME280;35163;48.878;18.040;2023-11-19T12:51:16;98207.25;;;6.80;64.44
49297;BME280;35163;48.878;18.040;2023-11-19T12:53:53;98197.84;;;6.79;64.43
49297;BME280;35163;48.878;18.040;2023-11-19T12:56:26;98196.13;;;6.81;64.22
49297;BME280;35163;48.878;18.040;2023-11-19T12:58:56;98185.00;;;6.79;65.21
49297;BME280;35163;48.878;18.040;2023-11-19T13:01:23;98159.25;;;6.82;65.09
49297;BME280;35163;48.878;18.040;2023-11-19T13:03:50;98174.66;;;6.82;64.71
49297;BME280;35163;48.878;18.040;2023-11-19T13:06:18;98183.25;;;6.81;64.55
49297;BME280;35163;48.878;18.040;2023-11-19T13:08:49;98185.72;;;6.86;64.64
49297;BME280;35163;48.878;18.040;2023-11-19T13:11:31;98184.06;;;6.85;65.29
49297;BME280;35163;48.878;18.040;2023-11-19T13:16:31;98195.19;;;6.84;65.00
49297;BME280;35163;48.878;18.040;2023-11-19T13:18:58;98186.66;;;6.83;64.91
49297;BME280;35163;48.878;18.040;2023-11-19T13:21:27;98189.19;;;6.85;65.06
49297;BME280;35163;48.878;18.040;2023-11-19T13:23:54;98195.16;;;6.85;65.51
49297;BME280;35163;48.878;18.040;2023-11-19T13:26:21;98181.44;;;6.86;65.29
49297;BME280;35163;48.878;18.040;2023-11-19T13:28:48;98166.97;;;6.80;65.03
49297;BME280;35163;48.878;18.040;2023-11-19T13:31:15;98170.31;;;6.86;65.16
49297;BME280;35163;48.878;18.040;2023-11-19T13:33:42;98164.31;;;6.87;64.98